PWSweather.com
Personal Weather Stations
Station Observations
KWAVA98665
Vancouver, WA 98665

Vancouver, WA 98665

Lat: 45.6827589, Lon: -122.63116100000002

Elevation: 262

Station Type: Davis VP2

http://www.bobsvp2wd.net

High Low Average
Temperature 42.4°F5.8°C 34.6°F1.4°C 38.8°F3.8°C
Dew Point 40.0°F4.4°C 33.1°F0.6°C 36.9°F2.7°C
Winds 5.8 mph 9.3 kmh Calm Calm Calm ESECalm ESE
Wind Gusts 10.4 mph16.7 kmh -- 1.0 mph1.6 kmh
Humidity 95% 89% 93%
Pressure 29.96 in1014.6 mb 29.70 in1005.8 mb -
Precipitation 0.26 in6.6 mm - -
Hour Temp Dew Point Humidity Winds Wind Gusts Pressure Precip Precip Rate Daily Precip Total
12:00 AM 39.3°F4.1°C 37.4°F3.0°C 93% Calm Calm -- 29.70 in1005.8 mb - 0.02 in0.5 mm 0.02 in0.5 mm
12:30 AM 39.1°F3.9°C 37.2°F2.9°C 93% Calm Calm -- 29.70 in1005.8 mb - 0.00 in0.0 mm 0.02 in0.5 mm
01:00 AM 39.1°F3.9°C 37.2°F2.9°C 93% Calm Calm -- 29.71 in1006.1 mb - 0.01 in0.3 mm 0.01 in0.3 mm
01:30 AM 39.0°F3.9°C 37.1°F2.8°C 93% 1.2 mph E1.9 kmh E 2.3 mph3.7 kmh 29.71 in1006.1 mb - 0.01 in0.3 mm 0.01 in0.3 mm
02:00 AM 39.0°F3.9°C 37.4°F3.0°C 94% Calm Calm -- 29.71 in1006.1 mb - 0.01 in0.3 mm 0.01 in0.3 mm
02:30 AM 38.8°F3.8°C 36.9°F2.7°C 93% Calm Calm -- 29.72 in1006.4 mb - 0.01 in0.3 mm 0.02 in0.5 mm
03:00 AM 38.7°F3.7°C 37.1°F2.8°C 94% Calm Calm -- 29.72 in1006.4 mb - 0.01 in0.3 mm 0.02 in0.5 mm
03:30 AM 38.5°F3.6°C 36.9°F2.7°C 94% Calm Calm -- 29.73 in1006.8 mb - 0.00 in0.0 mm 0.02 in0.5 mm
04:00 AM 38.4°F3.6°C 36.8°F2.7°C 94% Calm Calm -- 29.73 in1006.8 mb - 0.00 in0.0 mm 0.02 in0.5 mm
04:30 AM 38.4°F3.6°C 36.8°F2.7°C 94% Calm Calm -- 29.74 in1007.1 mb - 0.01 in0.3 mm 0.03 in0.8 mm
05:00 AM 38.2°F3.4°C 36.6°F2.6°C 94% Calm Calm -- 29.75 in1007.5 mb - 0.01 in0.3 mm 0.03 in0.8 mm
05:30 AM 38.1°F3.4°C 36.5°F2.5°C 94% Calm Calm -- 29.77 in1008.1 mb - 0.01 in0.3 mm 0.04 in1.0 mm
06:00 AM 38.0°F3.3°C 36.4°F2.4°C 94% Calm Calm -- 29.78 in1008.5 mb - 0.01 in0.3 mm 0.04 in1.0 mm
06:30 AM 38.1°F3.4°C 36.5°F2.5°C 94% Calm Calm -- 29.79 in1008.8 mb - 0.00 in0.0 mm 0.04 in1.0 mm
07:00 AM 38.1°F3.4°C 36.5°F2.5°C 94% Calm Calm -- 29.80 in1009.1 mb - 0.00 in0.0 mm 0.04 in1.0 mm
07:30 AM 38.2°F3.4°C 36.6°F2.6°C 94% Calm Calm -- 29.81 in1009.5 mb - 0.00 in0.0 mm 0.04 in1.0 mm
08:00 AM 38.4°F3.6°C 37.1°F2.8°C 95% Calm Calm -- 29.83 in1010.2 mb - 0.01 in0.3 mm 0.05 in1.3 mm
08:30 AM 38.7°F3.7°C 37.1°F2.8°C 94% Calm Calm -- 29.84 in1010.5 mb - 0.01 in0.3 mm 0.05 in1.3 mm
09:00 AM 39.4°F4.1°C 37.8°F3.2°C 94% Calm Calm -- 29.84 in1010.5 mb - 0.00 in0.0 mm 0.05 in1.3 mm
09:30 AM 39.8°F4.3°C 38.2°F3.4°C 94% Calm Calm -- 29.84 in1010.5 mb - 0.00 in0.0 mm 0.05 in1.3 mm
10:00 AM 40.6°F4.8°C 39.0°F3.9°C 94% Calm Calm -- 29.85 in1010.8 mb - 0.00 in0.0 mm 0.05 in1.3 mm
10:30 AM 41.0°F5.0°C 39.1°F3.9°C 93% Calm Calm 1.2 mph1.9 kmh 29.86 in1011.2 mb - 0.00 in0.0 mm 0.05 in1.3 mm
11:00 AM 41.5°F5.3°C 39.3°F4.1°C 92% Calm Calm -- 29.86 in1011.2 mb - 0.00 in0.0 mm 0.05 in1.3 mm
11:30 AM 41.9°F5.5°C 39.7°F4.3°C 92% Calm Calm -- 29.87 in1011.5 mb - 0.00 in0.0 mm 0.05 in1.3 mm
12:00 PM 42.4°F5.8°C 40.0°F4.4°C 91% Calm Calm -- 29.87 in1011.5 mb - 0.00 in0.0 mm 0.05 in1.3 mm
12:30 PM 41.8°F5.4°C 39.1°F3.9°C 90% Calm Calm -- 29.87 in1011.5 mb - 0.00 in0.0 mm 0.05 in1.3 mm
01:00 PM 41.4°F5.2°C 39.0°F3.9°C 91% Calm Calm -- 29.86 in1011.2 mb - 0.01 in0.3 mm 0.06 in1.5 mm
01:30 PM 41.2°F5.1°C 39.1°F3.9°C 92% Calm Calm -- 29.86 in1011.2 mb - 0.02 in0.5 mm 0.07 in1.8 mm
02:00 PM 40.4°F4.7°C 38.3°F3.5°C 92% Calm Calm -- 29.87 in1011.5 mb - 0.05 in1.3 mm 0.11 in2.8 mm
02:30 PM 40.9°F4.9°C 38.5°F3.6°C 91% 5.8 mph WSW9.3 kmh WSW 10.4 mph16.7 kmh 29.87 in1011.5 mb - 0.05 in1.3 mm 0.12 in3.0 mm
03:00 PM 40.5°F4.7°C 37.8°F3.2°C 90% 1.2 mph SW1.9 kmh SW 3.5 mph5.6 kmh 29.88 in1011.9 mb - 0.02 in0.5 mm 0.13 in3.3 mm
03:30 PM 40.7°F4.8°C 37.7°F3.2°C 89% Calm Calm -- 29.90 in1012.5 mb - 0.02 in0.5 mm 0.14 in3.6 mm
04:00 PM 40.6°F4.8°C 37.6°F3.1°C 89% Calm Calm -- 29.91 in1012.9 mb - 0.01 in0.3 mm 0.14 in3.6 mm
04:30 PM 40.4°F4.7°C 37.4°F3.0°C 89% Calm Calm -- 29.90 in1012.5 mb - 0.01 in0.3 mm 0.15 in3.8 mm
05:00 PM 40.2°F4.6°C 37.8°F3.2°C 91% Calm Calm -- 29.91 in1012.9 mb - 0.01 in0.3 mm 0.15 in3.8 mm
05:30 PM 39.9°F4.4°C 37.8°F3.2°C 92% Calm Calm -- 29.91 in1012.9 mb - 0.00 in0.0 mm 0.15 in3.8 mm
06:00 PM 39.1°F3.9°C 37.0°F2.8°C 92% Calm Calm -- 29.91 in1012.9 mb - 0.00 in0.0 mm 0.15 in3.8 mm
06:30 PM 38.2°F3.4°C 36.4°F2.4°C 93% Calm Calm 1.2 mph1.9 kmh 29.91 in1012.9 mb - 0.00 in0.0 mm 0.15 in3.8 mm
07:00 PM 37.7°F3.2°C 35.9°F2.2°C 93% Calm Calm 1.2 mph1.9 kmh 29.91 in1012.9 mb - 0.00 in0.0 mm 0.15 in3.8 mm
07:30 PM 37.2°F2.9°C 35.4°F1.9°C 93% 4.6 mph NW7.4 kmh NW 4.6 mph7.4 kmh 29.92 in1013.2 mb - 0.07 in1.8 mm 0.22 in5.6 mm
08:00 PM 36.0°F2.2°C 33.9°F1.1°C 92% Calm Calm -- 29.92 in1013.2 mb - 0.10 in2.5 mm 0.25 in6.4 mm
08:30 PM 35.8°F2.1°C 34.0°F1.1°C 93% Calm Calm -- 29.93 in1013.5 mb - 0.04 in1.0 mm 0.26 in6.6 mm
09:00 PM 35.2°F1.8°C 33.4°F0.8°C 93% Calm Calm -- 29.93 in1013.5 mb - 0.01 in0.3 mm 0.26 in6.6 mm
09:30 PM 34.9°F1.6°C 33.3°F0.7°C 94% Calm Calm -- 29.93 in1013.5 mb - 0.00 in0.0 mm 0.26 in6.6 mm
10:00 PM 34.6°F1.4°C 33.1°F0.6°C 94% Calm Calm -- 29.94 in1013.9 mb - 0.00 in0.0 mm 0.26 in6.6 mm
10:30 PM 34.6°F1.4°C 33.1°F0.6°C 94% Calm Calm -- 29.95 in1014.2 mb - 0.00 in0.0 mm 0.26 in6.6 mm
11:00 PM 34.9°F1.6°C 33.3°F0.7°C 94% Calm Calm -- 29.95 in1014.2 mb - 0.00 in0.0 mm 0.26 in6.6 mm
11:30 PM 35.0°F1.7°C 33.4°F0.8°C 94% Calm Calm -- 29.96 in1014.6 mb - 0.00 in0.0 mm 0.26 in6.6 mm